METAR Data
IDs: Format: Raw Decoded Include TAF

Data at: 1343 UTC 21 Oct 2019

METAR for:KJAQ (Jackson/Westover Fld, CA, US)
Text:KJAQ 211335Z AUTO 30006KT 10SM CLR 17/05 A3012 RMK AO1 T01650050
Temperature: 16.5°C ( 62°F)
Dewpoint: 5.0°C ( 41°F) [RH = 46%]
Pressure (altimeter):30.12 inches Hg (1020.1 mb)
Winds:from the WNW (300 degrees) at 7 MPH (6 knots; 3.1 m/s)
Visibility:10 or more sm (16+ km)
Ceiling:at least 12,000 feet AGL
Clouds:sky clear below 12,000 feet AGL
QC Flag:automated observation with no human augmentation
Text:KJAQ 211315Z AUTO 30009KT 10SM CLR 17/05 A3013 RMK AO1 T01690050
Temperature: 16.9°C ( 62°F)
Dewpoint: 5.0°C ( 41°F) [RH = 45%]
Pressure (altimeter):30.13 inches Hg (1020.4 mb)
Winds:from the WNW (300 degrees) at 10 MPH (9 knots; 4.6 m/s)
Visibility:10 or more sm (16+ km)
Ceiling:at least 12,000 feet AGL
Clouds:sky clear below 12,000 feet AGL
QC Flag:automated observation with no human augmentation
Text:KJAQ 211255Z AUTO 36004KT 10SM CLR 14/05 A3012 RMK AO1 T01400051
Temperature: 14.0°C ( 57°F)
Dewpoint: 5.1°C ( 41°F) [RH = 55%]
Pressure (altimeter):30.12 inches Hg (1020.1 mb)
Winds:from the N (360 degrees) at 5 MPH (4 knots; 2.1 m/s)
Visibility:10 or more sm (16+ km)
Ceiling:at least 12,000 feet AGL
Clouds:sky clear below 12,000 feet AGL
QC Flag:automated observation with no human augmentation